Cfl Racer — PJMV — position and weather

sailwx.info

Track history (hours):
 
Tides and Currents Weather Stations Pressure Air Temp Water Temp Dewpoint Dewpoint Depression Visibility Wind Speed Wind Dir Waves Ship Positions

Cfl Racer

Last reported at 2015-Aug-26 07:10 UTC. Time now 2015-Aug-28 09:31 UTC.
Position N 51°53' E 004°26'.

Length 83 m; draft 3.2 m.

Type: Cargo ship. MMSI: 306762000.

Date/timePositionNaut miles runAvg speedWind from/ knotsBaromVisibWave heightAir tempDewpointWater temp
2015-Aug-26 07:10N 51°53' E 004°26'0 0.0
2015-Aug-26 06:31N 51°53' E 004°26'0 0.0
2015-Aug-26 05:28N 51°53' E 004°26'0 0.0
2015-Aug-26 04:28N 51°53' E 004°26'0 0.0
2015-Aug-26 03:28N 51°53' E 004°26'0 0.0
2015-Aug-26 02:31N 51°53' E 004°26'0 0.0
2015-Aug-26 01:31N 51°53' E 004°26'0 0.0
2015-Aug-26 00:31N 51°53' E 004°26'0 0.0
2015-Aug-25 23:31N 51°53' E 004°26'0 0.0
2015-Aug-25 22:31N 51°53' E 004°26'0 0.0
2015-Aug-25 21:31N 51°53' E 004°26'0 0.0
2015-Aug-25 20:31N 51°53' E 004°26'0 0.0
2015-Aug-25 19:31N 51°53' E 004°26'0 0.0
2015-Aug-25 18:28N 51°53' E 004°26'0 0.0
2015-Aug-25 17:31N 51°53' E 004°26'0 0.0
2015-Aug-25 16:31N 51°53' E 004°26'0 0.0
2015-Aug-25 15:31N 51°53' E 004°26'0 0.0
2015-Aug-25 14:31N 51°53' E 004°26'0 0.0
2015-Aug-25 13:28N 51°53' E 004°26'0 0.0
2015-Aug-25 12:31N 51°53' E 004°26'0 0.0
2015-Aug-25 11:28N 51°53' E 004°26'0 0.0
2015-Aug-25 10:31N 51°53' E 004°26'0 0.0
2015-Aug-25 09:31N 51°53' E 004°26'0 0.0
2015-Aug-25 08:31N 51°53' E 004°26'0 0.0
2015-Aug-25 07:31N 51°53' E 004°26'1 0.8
2015-Aug-25 06:33N 51°53' E 004°24'7 7.2
2015-Aug-25 05:33N 51°56' E 004°13'10 9.8
2015-Aug-25 04:33N 52°00' E 003°59'10 9.6
2015-Aug-25 03:33N 51°59' E 003°44'60 9.7
2015-Aug-24 21:22N 52°30' E 002°20'810.1
2015-Aug-24 20:33N 52°33' E 002°07'10 9.7
2015-Aug-24 19:33N 52°37' E 001°53'9 9.4
2015-Aug-24 18:33N 52°45' E 001°44'1010.4
2015-Aug-24 17:33N 52°53' E 001°34'1110.6
2015-Aug-24 16:33N 52°59' E 001°19'40 0.8
2015-Aug-22 16:32N 53°24' E 000°28'9 9.4
2015-Aug-22 15:33N 53°31' E 000°17'1110.8
2015-Aug-22 14:33N 53°35' E 000°00'1211.8
2015-Aug-22 13:33N 53°43' W 000°15'2 1.7
2015-Aug-22 12:33N 53°45' W 000°15'0 0.0
2015-Aug-22 11:12N 53°45' W 000°15'0 0.0
2015-Aug-21 23:18N 53°45' W 000°15'1 0.7
2015-Aug-21 22:33N 53°44' W 000°16'1 1.3
2015-Aug-21 21:33N 53°43' W 000°15'8 8.3
2015-Aug-21 20:33N 53°37' W 000°06'1111.3
2015-Aug-21 19:33N 53°33' E 000°12'9 8.5
2015-Aug-21 18:33N 53°28' E 000°24'36 9.1
2015-Aug-21 14:33N 53°02' E 001°06'1010.5
2015-Aug-21 13:33N 52°57' E 001°22'9 9.5
2015-Aug-21 12:33N 52°51' E 001°34'9 8.7
2015-Aug-21 11:33N 52°45' E 001°44'8 8.0
2015-Aug-21 10:33N 52°39' E 001°52'9 9.1
2015-Aug-21 09:33N 52°32' E 002°01'7510.5
2015-Aug-21 02:24N 51°36' E 003°23'8 9.0
2015-Aug-21 01:33N 51°30' E 003°29'8 7.8
2015-Aug-21 00:33N 51°26' E 003°40'9 8.6
2015-Aug-20 23:33N 51°20' E 003°49'4 3.9
2015-Aug-20 22:34N 51°16' E 003°50'5 4.9
2015-Aug-20 21:28N 51°11' E 003°48'0 0.0
2015-Aug-20 20:31N 51°11' E 003°48'0 0.0
2015-Aug-20 19:28N 51°11' E 003°48'0 0.0
2015-Aug-20 18:31N 51°11' E 003°48'0 0.0
2015-Aug-20 17:28N 51°11' E 003°48'0 0.0
2015-Aug-20 16:28N 51°11' E 003°48'0 0.0
2015-Aug-20 15:28N 51°11' E 003°48'0 0.0
2015-Aug-20 14:31N 51°11' E 003°48'0 0.0
2015-Aug-20 13:31N 51°11' E 003°48'0 0.0
2015-Aug-20 12:31N 51°11' E 003°48'0 0.0
2015-Aug-20 11:31N 51°11' E 003°48'0 0.0
2015-Aug-20 10:25N 51°11' E 003°48'0 0.0
2015-Aug-20 09:28N 51°11' E 003°48'0 0.0
2015-Aug-20 08:31N 51°11' E 003°48'0 0.0
2015-Aug-20 07:28N 51°11' E 003°48'0 0.0
2015-Aug-20 06:28N 51°11' E 003°48'0 0.0
2015-Aug-20 05:31N 51°11' E 003°48'0 0.0
2015-Aug-20 04:31N 51°11' E 003°48'0 0.0
2015-Aug-20 03:31N 51°11' E 003°48'0 0.0
2015-Aug-20 02:31N 51°11' E 003°48'0 0.0
2015-Aug-20 01:28N 51°11' E 003°48'0 0.0
2015-Aug-20 00:28N 51°11' E 003°48'0 0.0
2015-Aug-19 23:28N 51°11' E 003°48'0 0.0
2015-Aug-19 22:31N 51°11' E 003°48'0 0.0
2015-Aug-19 21:28N 51°11' E 003°48'0 0.0
2015-Aug-19 20:28N 51°11' E 003°48'1 1.5
2015-Aug-19 19:33N 51°10' E 003°47'0 0.1
2015-Aug-19 18:26N 51°09' E 003°47'0 0.0
2015-Aug-19 17:32N 51°09' E 003°47'0 0.0
2015-Aug-19 16:32N 51°09' E 003°47'0 0.0
2015-Aug-19 15:32N 51°09' E 003°47'0 0.0
2015-Aug-19 14:32N 51°09' E 003°47'0 0.0
2015-Aug-19 13:32N 51°09' E 003°47'0 0.0
2015-Aug-19 12:32N 51°09' E 003°47'0 0.0
2015-Aug-19 11:32N 51°09' E 003°47'0 0.0
2015-Aug-19 10:32N 51°09' E 003°47'0 0.0
2015-Aug-19 09:32N 51°09' E 003°47'0 0.0
2015-Aug-19 08:32N 51°09' E 003°47'0 0.0
2015-Aug-19 07:32N 51°09' E 003°47'0 0.0
2015-Aug-19 06:32N 51°09' E 003°47'0 0.0
2015-Aug-19 05:32N 51°09' E 003°47'0 0.0
2015-Aug-19 04:32N 51°09' E 003°47'0 0.0
2015-Aug-19 03:32N 51°09' E 003°47'0 0.0
2015-Aug-19 02:32N 51°09' E 003°47'0 0.0
2015-Aug-19 01:32N 51°09' E 003°47'0 0.0
2015-Aug-19 00:32N 51°09' E 003°47'0 0.0
2015-Aug-18 23:32N 51°09' E 003°47'0 0.0
2015-Aug-18 22:32N 51°09' E 003°47'0 0.0
2015-Aug-18 21:32N 51°09' E 003°47'0 0.0
2015-Aug-18 20:29N 51°09' E 003°47'0 0.0
2015-Aug-18 19:29N 51°09' E 003°47'0 0.0
2015-Aug-18 18:32N 51°09' E 003°47'0 0.0
2015-Aug-18 17:32N 51°09' E 003°47'0 0.0
2015-Aug-18 16:32N 51°09' E 003°47'0 0.0
2015-Aug-18 15:32N 51°09' E 003°47'0 0.0
2015-Aug-18 14:29N 51°09' E 003°47'0 0.0
2015-Aug-18 13:29N 51°09' E 003°47'0 0.0
2015-Aug-18 12:29N 51°09' E 003°47'0 0.0
2015-Aug-18 11:32N 51°09' E 003°47'0 0.0
2015-Aug-18 10:32N 51°09' E 003°47'0 0.0
2015-Aug-18 09:32N 51°09' E 003°47'0 0.0
2015-Aug-18 08:32N 51°09' E 003°47'0 0.0
2015-Aug-18 07:32N 51°09' E 003°47'0 0.0
2015-Aug-18 06:32N 51°09' E 003°47'0 0.0
2015-Aug-18 05:32N 51°09' E 003°47'0 0.0
2015-Aug-18 04:32N 51°09' E 003°47'0 0.0
2015-Aug-18 04:11N 51°09' E 003°47'0 0.0
2015-Aug-18 04:08N 51°09' E 003°47'0 0.0
2015-Aug-18 03:32N 51°09' E 003°47'0 0.0
2015-Aug-18 02:32N 51°09' E 003°47'0 0.0
2015-Aug-18 01:32N 51°09' E 003°47'0 0.0
2015-Aug-18 00:32N 51°09' E 003°47'0 0.0
2015-Aug-17 23:32N 51°09' E 003°47'0 0.0
2015-Aug-17 22:32N 51°09' E 003°47'0 0.0
2015-Aug-17 21:32N 51°09' E 003°47'0 0.0
2015-Aug-17 20:29N 51°09' E 003°47'0 0.0
2015-Aug-17 19:32N 51°09' E 003°47'0 0.0
2015-Aug-17 18:29N 51°09' E 003°47'0 0.0
2015-Aug-17 17:32N 51°09' E 003°47'0 0.0
2015-Aug-17 16:32N 51°09' E 003°47'0 0.0
2015-Aug-17 15:32N 51°09' E 003°47'0 0.0
2015-Aug-17 14:32N 51°09' E 003°47'0 0.0
2015-Aug-17 13:34N 51°09' E 003°47'5 4.9
2015-Aug-17 12:34N 51°14' E 003°49'5 5.4
2015-Aug-17 11:33N 51°20' E 003°49'1 0.9
2015-Aug-17 10:33N 51°21' E 003°49'7 7.1
2015-Aug-17 09:33N 51°25' E 003°40'1111.2
2015-Aug-17 08:33N 51°32' E 003°25'74 9.9
2015-Aug-17 01:04N 52°28' E 002°06'611.5
2015-Aug-17 00:33N 52°32' E 001°60'1212.3
2015-Aug-16 23:33N 52°42' E 001°48'1312.7
2015-Aug-16 22:33N 52°51' E 001°34'1313.1
2015-Aug-16 21:33N 52°59' E 001°16'4113.0
2015-Aug-16 18:23N 53°26' E 000°25'1011.6
2015-Aug-16 17:33N 53°33' E 000°12'9 9.2
2015-Aug-16 16:33N 53°36' W 000°02'9 8.5
2015-Aug-16 15:33N 53°41' W 000°13'4 3.7
2015-Aug-16 14:33N 53°45' W 000°16'  
Track history (hours):
 
Tides and Currents Weather Stations Pressure Air Temp Water Temp Dewpoint Dewpoint Depression Visibility Wind Speed Wind Dir Waves Ship Positions

Cfl Racer

Last reported at 2015-Aug-26 07:10 UTC. Time now 2015-Aug-28 09:31 UTC.
Position N 51°53' E 004°26'.

Length 83 m; draft 3.2 m.

Type: Cargo ship. MMSI: 306762000.

Date/timePositionNaut miles runAvg speedWind from/ knotsBaromVisibWave heightAir tempDewpointWater temp
2015-Aug-26 07:10N 51°53' E 004°26'0 0.0
2015-Aug-26 06:31N 51°53' E 004°26'0 0.0
2015-Aug-26 05:28N 51°53' E 004°26'0 0.0
2015-Aug-26 04:28N 51°53' E 004°26'0 0.0
2015-Aug-26 03:28N 51°53' E 004°26'0 0.0
2015-Aug-26 02:31N 51°53' E 004°26'0 0.0
2015-Aug-26 01:31N 51°53' E 004°26'0 0.0
2015-Aug-26 00:31N 51°53' E 004°26'0 0.0
2015-Aug-25 23:31N 51°53' E 004°26'0 0.0
2015-Aug-25 22:31N 51°53' E 004°26'0 0.0
2015-Aug-25 21:31N 51°53' E 004°26'0 0.0
2015-Aug-25 20:31N 51°53' E 004°26'0 0.0
2015-Aug-25 19:31N 51°53' E 004°26'0 0.0
2015-Aug-25 18:28N 51°53' E 004°26'0 0.0
2015-Aug-25 17:31N 51°53' E 004°26'0 0.0
2015-Aug-25 16:31N 51°53' E 004°26'0 0.0
2015-Aug-25 15:31N 51°53' E 004°26'0 0.0
2015-Aug-25 14:31N 51°53' E 004°26'0 0.0
2015-Aug-25 13:28N 51°53' E 004°26'0 0.0
2015-Aug-25 12:31N 51°53' E 004°26'0 0.0
2015-Aug-25 11:28N 51°53' E 004°26'0 0.0
2015-Aug-25 10:31N 51°53' E 004°26'0 0.0
2015-Aug-25 09:31N 51°53' E 004°26'0 0.0
2015-Aug-25 08:31N 51°53' E 004°26'0 0.0
2015-Aug-25 07:31N 51°53' E 004°26'1 0.8
2015-Aug-25 06:33N 51°53' E 004°24'7 7.2
2015-Aug-25 05:33N 51°56' E 004°13'10 9.8
2015-Aug-25 04:33N 52°00' E 003°59'10 9.6
2015-Aug-25 03:33N 51°59' E 003°44'60 9.7
2015-Aug-24 21:22N 52°30' E 002°20'810.1
2015-Aug-24 20:33N 52°33' E 002°07'10 9.7
2015-Aug-24 19:33N 52°37' E 001°53'9 9.4
2015-Aug-24 18:33N 52°45' E 001°44'1010.4
2015-Aug-24 17:33N 52°53' E 001°34'1110.6
2015-Aug-24 16:33N 52°59' E 001°19'40 0.8
2015-Aug-22 16:32N 53°24' E 000°28'9 9.4
2015-Aug-22 15:33N 53°31' E 000°17'1110.8
2015-Aug-22 14:33N 53°35' E 000°00'1211.8
2015-Aug-22 13:33N 53°43' W 000°15'2 1.7
2015-Aug-22 12:33N 53°45' W 000°15'0 0.0
2015-Aug-22 11:12N 53°45' W 000°15'0 0.0
2015-Aug-21 23:18N 53°45' W 000°15'1 0.7
2015-Aug-21 22:33N 53°44' W 000°16'1 1.3
2015-Aug-21 21:33N 53°43' W 000°15'8 8.3
2015-Aug-21 20:33N 53°37' W 000°06'1111.3
2015-Aug-21 19:33N 53°33' E 000°12'9 8.5
2015-Aug-21 18:33N 53°28' E 000°24'36 9.1
2015-Aug-21 14:33N 53°02' E 001°06'1010.5
2015-Aug-21 13:33N 52°57' E 001°22'9 9.5
2015-Aug-21 12:33N 52°51' E 001°34'9 8.7
2015-Aug-21 11:33N 52°45' E 001°44'8 8.0
2015-Aug-21 10:33N 52°39' E 001°52'9 9.1
2015-Aug-21 09:33N 52°32' E 002°01'7510.5
2015-Aug-21 02:24N 51°36' E 003°23'8 9.0
2015-Aug-21 01:33N 51°30' E 003°29'8 7.8
2015-Aug-21 00:33N 51°26' E 003°40'9 8.6
2015-Aug-20 23:33N 51°20' E 003°49'4 3.9
2015-Aug-20 22:34N 51°16' E 003°50'5 4.9
2015-Aug-20 21:28N 51°11' E 003°48'0 0.0
2015-Aug-20 20:31N 51°11' E 003°48'0 0.0
2015-Aug-20 19:28N 51°11' E 003°48'0 0.0
2015-Aug-20 18:31N 51°11' E 003°48'0 0.0
2015-Aug-20 17:28N 51°11' E 003°48'0 0.0
2015-Aug-20 16:28N 51°11' E 003°48'0 0.0
2015-Aug-20 15:28N 51°11' E 003°48'0 0.0
2015-Aug-20 14:31N 51°11' E 003°48'0 0.0
2015-Aug-20 13:31N 51°11' E 003°48'0 0.0
2015-Aug-20 12:31N 51°11' E 003°48'0 0.0
2015-Aug-20 11:31N 51°11' E 003°48'0 0.0
2015-Aug-20 10:25N 51°11' E 003°48'0 0.0
2015-Aug-20 09:28N 51°11' E 003°48'0 0.0
2015-Aug-20 08:31N 51°11' E 003°48'0 0.0
2015-Aug-20 07:28N 51°11' E 003°48'0 0.0
2015-Aug-20 06:28N 51°11' E 003°48'0 0.0
2015-Aug-20 05:31N 51°11' E 003°48'0 0.0
2015-Aug-20 04:31N 51°11' E 003°48'0 0.0
2015-Aug-20 03:31N 51°11' E 003°48'0 0.0
2015-Aug-20 02:31N 51°11' E 003°48'0 0.0
2015-Aug-20 01:28N 51°11' E 003°48'0 0.0
2015-Aug-20 00:28N 51°11' E 003°48'0 0.0
2015-Aug-19 23:28N 51°11' E 003°48'0 0.0
2015-Aug-19 22:31N 51°11' E 003°48'0 0.0
2015-Aug-19 21:28N 51°11' E 003°48'0 0.0
2015-Aug-19 20:28N 51°11' E 003°48'1 1.5
2015-Aug-19 19:33N 51°10' E 003°47'0 0.1
2015-Aug-19 18:26N 51°09' E 003°47'0 0.0
2015-Aug-19 17:32N 51°09' E 003°47'0 0.0
2015-Aug-19 16:32N 51°09' E 003°47'0 0.0
2015-Aug-19 15:32N 51°09' E 003°47'0 0.0
2015-Aug-19 14:32N 51°09' E 003°47'0 0.0
2015-Aug-19 13:32N 51°09' E 003°47'0 0.0
2015-Aug-19 12:32N 51°09' E 003°47'0 0.0
2015-Aug-19 11:32N 51°09' E 003°47'0 0.0
2015-Aug-19 10:32N 51°09' E 003°47'0 0.0
2015-Aug-19 09:32N 51°09' E 003°47'0 0.0
2015-Aug-19 08:32N 51°09' E 003°47'0 0.0
2015-Aug-19 07:32N 51°09' E 003°47'0 0.0
2015-Aug-19 06:32N 51°09' E 003°47'0 0.0
2015-Aug-19 05:32N 51°09' E 003°47'0 0.0
2015-Aug-19 04:32N 51°09' E 003°47'0 0.0
2015-Aug-19 03:32N 51°09' E 003°47'0 0.0
2015-Aug-19 02:32N 51°09' E 003°47'0 0.0
2015-Aug-19 01:32N 51°09' E 003°47'0 0.0
2015-Aug-19 00:32N 51°09' E 003°47'0 0.0
2015-Aug-18 23:32N 51°09' E 003°47'0 0.0
2015-Aug-18 22:32N 51°09' E 003°47'0 0.0
2015-Aug-18 21:32N 51°09' E 003°47'0 0.0
2015-Aug-18 20:29N 51°09' E 003°47'0 0.0
2015-Aug-18 19:29N 51°09' E 003°47'0 0.0
2015-Aug-18 18:32N 51°09' E 003°47'0 0.0
2015-Aug-18 17:32N 51°09' E 003°47'0 0.0
2015-Aug-18 16:32N 51°09' E 003°47'0 0.0
2015-Aug-18 15:32N 51°09' E 003°47'0 0.0
2015-Aug-18 14:29N 51°09' E 003°47'0 0.0
2015-Aug-18 13:29N 51°09' E 003°47'0 0.0
2015-Aug-18 12:29N 51°09' E 003°47'0 0.0
2015-Aug-18 11:32N 51°09' E 003°47'0 0.0
2015-Aug-18 10:32N 51°09' E 003°47'0 0.0
2015-Aug-18 09:32N 51°09' E 003°47'0 0.0
2015-Aug-18 08:32N 51°09' E 003°47'0 0.0
2015-Aug-18 07:32N 51°09' E 003°47'0 0.0
2015-Aug-18 06:32N 51°09' E 003°47'0 0.0
2015-Aug-18 05:32N 51°09' E 003°47'0 0.0
2015-Aug-18 04:32N 51°09' E 003°47'0 0.0
2015-Aug-18 04:11N 51°09' E 003°47'0 0.0
2015-Aug-18 04:08N 51°09' E 003°47'0 0.0
2015-Aug-18 03:32N 51°09' E 003°47'0 0.0
2015-Aug-18 02:32N 51°09' E 003°47'0 0.0
2015-Aug-18 01:32N 51°09' E 003°47'0 0.0
2015-Aug-18 00:32N 51°09' E 003°47'0 0.0
2015-Aug-17 23:32N 51°09' E 003°47'0 0.0
2015-Aug-17 22:32N 51°09' E 003°47'0 0.0
2015-Aug-17 21:32N 51°09' E 003°47'0 0.0
2015-Aug-17 20:29N 51°09' E 003°47'0 0.0
2015-Aug-17 19:32N 51°09' E 003°47'0 0.0
2015-Aug-17 18:29N 51°09' E 003°47'0 0.0
2015-Aug-17 17:32N 51°09' E 003°47'0 0.0
2015-Aug-17 16:32N 51°09' E 003°47'0 0.0
2015-Aug-17 15:32N 51°09' E 003°47'0 0.0
2015-Aug-17 14:32N 51°09' E 003°47'0 0.0
2015-Aug-17 13:34N 51°09' E 003°47'5 4.9
2015-Aug-17 12:34N 51°14' E 003°49'5 5.4
2015-Aug-17 11:33N 51°20' E 003°49'1 0.9
2015-Aug-17 10:33N 51°21' E 003°49'7 7.1
2015-Aug-17 09:33N 51°25' E 003°40'1111.2
2015-Aug-17 08:33N 51°32' E 003°25'74 9.9
2015-Aug-17 01:04N 52°28' E 002°06'611.5
2015-Aug-17 00:33N 52°32' E 001°60'1212.3
2015-Aug-16 23:33N 52°42' E 001°48'1312.7
2015-Aug-16 22:33N 52°51' E 001°34'1313.1
2015-Aug-16 21:33N 52°59' E 001°16'4113.0
2015-Aug-16 18:23N 53°26' E 000°25'1011.6
2015-Aug-16 17:33N 53°33' E 000°12'9 9.2
2015-Aug-16 16:33N 53°36' W 000°02'9 8.5
2015-Aug-16 15:33N 53°41' W 000°13'4 3.7
2015-Aug-16 14:33N 53°45' W 000°16'  

Dump ship's entire track history